Time;durP1;ratioP1;P1;durP2;ratioP2;P2;SDS_P1;SDS_P2;PMS_P1;PMS_P2;Temp;Humidity;BMP_temperature;BMP_pressure;BME280_temperature;BME280_humidity;BME280_pressure;Samples;Min_cycle;Max_cycle;Signal;HPM_P1;HPM_P2
2021/06/01 00:02:38;;;;;;;6.15;3.83;;;22.00;43.70;;;;;;6163166;28;80616;-67
2021/06/01 00:05:39;;;;;;;6.75;3.50;;;22.10;43.60;;;;;;6182139;28;81536;-67
2021/06/01 00:08:39;;;;;;;5.50;3.30;;;22.00;43.60;;;;;;6156577;28;81512;-67
2021/06/01 00:11:40;;;;;;;6.18;4.15;;;22.00;43.70;;;;;;6160561;28;80299;-67
2021/06/01 00:14:40;;;;;;;8.93;3.63;;;22.10;43.60;;;;;;6178907;28;81280;-67
2021/06/01 00:17:41;;;;;;;6.25;3.58;;;22.10;44.10;;;;;;6184962;28;81274;-68
2021/06/01 00:20:41;;;;;;;5.10;3.10;;;22.10;43.60;;;;;;6160666;28;80673;-67
2021/06/01 00:23:42;;;;;;;5.47;3.35;;;22.10;43.60;;;;;;6182293;28;80837;-67
2021/06/01 00:26:42;;;;;;;5.75;3.50;;;22.10;43.60;;;;;;6184557;28;80552;-67
2021/06/01 00:29:43;;;;;;;7.60;3.60;;;22.00;43.30;;;;;;6184606;28;81206;-67
2021/06/01 00:32:43;;;;;;;8.05;3.75;;;22.00;43.30;;;;;;6184039;28;81156;-66
2021/06/01 00:35:44;;;;;;;4.25;3.33;;;22.00;43.30;;;;;;6161389;28;80563;-67
2021/06/01 00:38:44;;;;;;;6.82;3.25;;;22.00;43.90;;;;;;6177293;28;82721;-66
2021/06/01 00:41:45;;;;;;;5.25;3.65;;;22.00;43.20;;;;;;6183669;28;80615;-67
2021/06/01 00:44:47;;;;;;;4.80;3.40;;;22.00;43.30;;;;;;6159421;28;81377;-66
2021/06/01 00:47:47;;;;;;;6.15;3.50;;;22.00;43.20;;;;;;6157439;28;83034;-65
2021/06/01 00:50:48;;;;;;;5.57;3.40;;;22.00;43.10;;;;;;6159481;28;83407;-65
2021/06/01 00:53:48;;;;;;;5.07;3.60;;;22.00;43.10;;;;;;6183499;28;80620;-65
2021/06/01 00:56:49;;;;;;;6.53;3.33;;;22.00;42.90;;;;;;6160394;28;83336;-66
2021/06/01 00:59:49;;;;;;;4.70;3.35;;;22.00;43.10;;;;;;6182754;28;81542;-65
2021/06/01 01:02:50;;;;;;;5.03;3.40;;;22.00;42.90;;;;;;6158677;28;80653;-65
2021/06/01 01:05:51;;;;;;;5.50;3.20;;;22.00;43.10;;;;;;6154771;28;81455;-67
2021/06/01 01:08:54;;;;;;;6.60;4.15;;;22.00;42.90;;;;;;6182918;28;80465;-65
2021/06/01 01:11:54;;;;;;;6.60;3.72;;;22.00;43.00;;;;;;6158299;28;84910;-65
2021/06/01 01:14:55;;;;;;;5.50;3.72;;;22.00;43.10;;;;;;6158778;28;81873;-65
2021/06/01 01:17:56;;;;;;;4.95;3.55;;;22.00;43.30;;;;;;6159574;28;80672;-65
2021/06/01 01:20:56;;;;;;;5.93;3.65;;;22.00;43.10;;;;;;6197864;28;80863;-66
2021/06/01 01:23:57;;;;;;;6.10;3.75;;;22.00;42.90;;;;;;6159021;28;81940;-65
2021/06/01 01:26:57;;;;;;;6.00;3.92;;;22.00;42.80;;;;;;6183092;28;80596;-66
2021/06/01 01:29:58;;;;;;;7.43;4.20;;;21.90;42.80;;;;;;6181903;28;81583;-65
2021/06/01 01:32:58;;;;;;;8.75;4.13;;;22.00;43.00;;;;;;6158959;28;80584;-66
2021/06/01 01:36:00;;;;;;;6.53;3.70;;;21.90;43.00;;;;;;6181935;28;80854;-66
2021/06/01 01:39:01;;;;;;;7.40;3.85;;;22.00;43.10;;;;;;6159397;28;80374;-65
2021/06/01 01:42:01;;;;;;;5.57;3.47;;;22.00;43.00;;;;;;6182712;28;80454;-66
2021/06/01 01:45:04;;;;;;;6.07;3.65;;;21.90;42.80;;;;;;6182503;28;82109;-66
2021/06/01 01:51:25;;;;;;;6.35;3.78;;;21.90;42.80;;;;;;6177896;28;85060;-65
2021/06/01 01:54:25;;;;;;;4.75;3.65;;;21.90;42.90;;;;;;6160759;28;80346;-64
2021/06/01 01:57:26;;;;;;;4.78;3.45;;;22.00;42.90;;;;;;6172632;28;80344;-64
2021/06/01 02:00:26;;;;;;;6.43;3.55;;;22.00;42.50;;;;;;6157178;28;80433;-65
2021/06/01 02:03:27;;;;;;;7.47;4.15;;;22.00;42.70;;;;;;6162309;28;80538;-66
2021/06/01 02:06:27;;;;;;;8.88;3.50;;;21.90;43.10;;;;;;6181056;28;80544;-66
2021/06/01 02:09:28;;;;;;;7.50;3.85;;;21.90;42.60;;;;;;6181573;28;80907;-65
2021/06/01 02:12:28;;;;;;;5.55;3.08;;;22.00;42.70;;;;;;6180233;28;80332;-65
2021/06/01 02:15:29;;;;;;;7.47;3.65;;;21.90;42.60;;;;;;6181051;28;81026;-65
2021/06/01 02:18:29;;;;;;;5.97;3.90;;;21.90;42.80;;;;;;6176410;28;80320;-65
2021/06/01 02:21:34;;;;;;;7.03;3.83;;;21.90;42.80;;;;;;6160111;28;82990;-65
2021/06/01 02:24:35;;;;;;;5.63;3.83;;;21.90;42.40;;;;;;6177381;28;83505;-65
2021/06/01 02:27:35;;;;;;;6.60;4.45;;;21.90;42.30;;;;;;6176073;28;81671;-65
2021/06/01 02:30:36;;;;;;;7.93;4.20;;;21.90;42.40;;;;;;6162519;28;81131;-65
2021/06/01 02:33:36;;;;;;;8.50;4.75;;;21.90;42.50;;;;;;6178345;28;81059;-66
2021/06/01 02:36:37;;;;;;;8.98;4.45;;;21.90;42.40;;;;;;6175362;28;80489;-65
2021/06/01 02:39:37;;;;;;;9.68;4.40;;;21.90;42.50;;;;;;6159436;28;80532;-65
2021/06/01 02:42:38;;;;;;;8.40;4.55;;;21.90;42.50;;;;;;6175472;28;80424;-66
2021/06/01 02:45:38;;;;;;;7.22;4.28;;;21.90;42.40;;;;;;6182054;28;80382;-68
2021/06/01 02:48:39;;;;;;;8.75;4.45;;;21.90;42.40;;;;;;6181567;28;80519;-65
2021/06/01 02:51:39;;;;;;;6.40;4.03;;;21.90;42.60;;;;;;6174685;28;80448;-66
2021/06/01 02:54:40;;;;;;;8.18;4.05;;;21.90;43.30;;;;;;6162387;28;80826;-66
2021/06/01 02:57:40;;;;;;;7.85;4.15;;;21.90;42.80;;;;;;6173827;28;80448;-66
2021/06/01 03:00:41;;;;;;;9.63;4.57;;;21.90;42.70;;;;;;6163082;28;80820;-65
2021/06/01 03:03:41;;;;;;;6.93;4.47;;;21.90;42.90;;;;;;6174999;28;80307;-67
2021/06/01 03:06:42;;;;;;;10.63;4.63;;;21.90;42.90;;;;;;6163658;28;81036;-65
2021/06/01 03:09:42;;;;;;;5.50;4.07;;;21.90;42.50;;;;;;6179413;28;83093;-65
2021/06/01 03:15:47;;;;;;;8.95;4.88;;;21.90;42.70;;;;;;6196482;28;82134;-65
2021/06/01 03:18:47;;;;;;;8.88;4.30;;;21.90;42.60;;;;;;6179661;28;80909;-66
2021/06/01 03:21:47;;;;;;;10.13;5.20;;;21.90;42.40;;;;;;6174965;28;83324;-66
2021/06/01 03:24:48;;;;;;;8.68;4.50;;;21.90;42.50;;;;;;6181543;28;80677;-67
2021/06/01 03:27:49;;;;;;;7.80;4.25;;;21.90;42.40;;;;;;6173006;28;84196;-67
2021/06/01 03:30:49;;;;;;;7.65;4.38;;;21.90;42.40;;;;;;6163929;28;81530;-66
2021/06/01 03:33:53;;;;;;;8.85;4.90;;;21.90;42.30;;;;;;6173866;28;81337;-67
2021/06/01 03:36:53;;;;;;;7.38;4.68;;;21.80;42.20;;;;;;6166252;28;83320;-67
2021/06/01 03:39:54;;;;;;;7.13;4.55;;;21.90;42.50;;;;;;6163199;28;84006;-67
2021/06/01 03:42:54;;;;;;;6.15;4.45;;;21.80;42.40;;;;;;6180689;28;80380;-67
2021/06/01 03:45:55;;;;;;;6.45;4.55;;;21.80;42.50;;;;;;6170875;28;81508;-67
2021/06/01 03:48:55;;;;;;;9.70;5.13;;;21.90;42.60;;;;;;6160818;28;80287;-67
2021/06/01 03:51:56;;;;;;;8.35;4.68;;;21.80;42.40;;;;;;6158033;28;80429;-67
2021/06/01 03:54:56;;;;;;;9.38;5.25;;;21.90;42.40;;;;;;6155812;28;80746;-66
2021/06/01 03:57:57;;;;;;;8.82;4.88;;;21.80;42.40;;;;;;6164796;28;80824;-66
2021/06/01 04:00:57;;;;;;;12.98;5.32;;;21.80;42.60;;;;;;6195388;28;80697;-66
2021/06/01 04:03:58;;;;;;;7.82;5.22;;;21.80;42.40;;;;;;6167483;28;81310;-65
2021/06/01 04:06:59;;;;;;;9.93;4.95;;;21.80;42.70;;;;;;6148039;28;81672;-66
2021/06/01 04:09:59;;;;;;;8.80;4.50;;;21.80;42.30;;;;;;6164730;28;80527;-66
2021/06/01 04:13:00;;;;;;;8.77;4.72;;;21.80;43.10;;;;;;6175874;28;81003;-67
2021/06/01 04:16:00;;;;;;;12.07;5.25;;;21.90;43.00;;;;;;6169981;28;80923;-65
2021/06/01 04:19:01;;;;;;;10.73;5.43;;;21.90;43.20;;;;;;6160850;28;80771;-66
2021/06/01 04:22:01;;;;;;;10.52;6.30;;;21.90;43.20;;;;;;6194523;28;80912;-67
2021/06/01 04:25:02;;;;;;;10.20;5.22;;;21.90;42.90;;;;;;6180354;28;80374;-65
2021/06/01 04:28:02;;;;;;;8.23;5.22;;;21.90;43.30;;;;;;6169588;28;80310;-65
2021/06/01 04:31:03;;;;;;;11.18;6.00;;;21.90;43.20;;;;;;6155239;28;80803;-63
2021/06/01 04:34:03;;;;;;;11.43;5.57;;;21.90;43.20;;;;;;6164717;28;80846;-63
2021/06/01 04:37:04;;;;;;;10.23;5.20;;;21.90;44.10;;;;;;6176227;28;80474;-64
2021/06/01 04:40:04;;;;;;;15.45;6.43;;;21.90;44.40;;;;;;6160853;28;80817;-65
2021/06/01 04:43:05;;;;;;;12.73;5.45;;;21.90;44.50;;;;;;6166993;28;80607;-64
2021/06/01 04:46:05;;;;;;;7.22;5.30;;;21.90;44.80;;;;;;6180316;28;81157;-64
2021/06/01 04:49:06;;;;;;;13.45;5.90;;;21.90;44.90;;;;;;6172956;28;80524;-66
2021/06/01 04:52:07;;;;;;;9.80;5.13;;;22.00;44.80;;;;;;6158348;28;80694;-65
2021/06/01 04:55:07;;;;;;;8.38;5.35;;;22.00;44.60;;;;;;6155998;28;80499;-65
2021/06/01 04:58:08;;;;;;;10.88;5.35;;;22.00;44.90;;;;;;6168046;28;80469;-66
2021/06/01 05:01:09;;;;;;;9.75;5.70;;;22.00;44.90;;;;;;6172569;28;82759;-64
2021/06/01 05:04:10;;;;;;;8.60;5.22;;;22.00;45.00;;;;;;6169381;28;80359;-66
2021/06/01 05:07:12;;;;;;;10.07;5.78;;;22.00;45.00;;;;;;6173334;28;81185;-65
2021/06/01 05:10:12;;;;;;;8.20;5.50;;;22.00;45.70;;;;;;6167311;28;81396;-65
2021/06/01 05:13:13;;;;;;;10.00;4.90;;;22.00;46.40;;;;;;6172632;28;80786;-65
2021/06/01 05:16:13;;;;;;;11.35;5.85;;;22.00;45.60;;;;;;6169114;28;80250;-64
2021/06/01 05:19:14;;;;;;;14.25;5.43;;;22.10;45.90;;;;;;6169799;28;83107;-66
2021/06/01 05:22:16;;;;;;;12.00;6.38;;;22.00;45.90;;;;;;6171629;28;81581;-63
2021/06/01 05:25:17;;;;;;;16.63;6.00;;;22.10;46.10;;;;;;6196579;28;81194;-65
2021/06/01 05:28:17;;;;;;;11.07;5.90;;;22.10;46.30;;;;;;6165794;28;80975;-65
2021/06/01 05:31:22;;;;;;;9.43;6.10;;;22.10;45.10;;;;;;6169624;28;80789;-65
2021/06/01 05:34:24;;;;;;;8.23;5.10;;;22.10;46.00;;;;;;6197914;28;83136;-66
2021/06/01 05:37:25;;;;;;;17.05;5.45;;;22.10;45.80;;;;;;6168741;28;83416;-68
2021/06/01 05:40:25;;;;;;;13.23;6.03;;;22.10;45.80;;;;;;6156654;28;81674;-62
2021/06/01 05:43:26;;;;;;;11.77;6.22;;;22.10;45.50;;;;;;6157653;28;80837;-65
2021/06/01 05:46:28;;;;;;;18.63;5.53;;;22.10;45.40;;;;;;6168147;28;80388;-65
2021/06/01 05:49:28;;;;;;;12.95;5.53;;;22.10;45.70;;;;;;6184003;28;81354;-65
2021/06/01 05:52:29;;;;;;;17.05;6.20;;;22.10;45.50;;;;;;6158113;28;80774;-66
2021/06/01 05:55:30;;;;;;;22.67;8.45;;;22.10;45.90;;;;;;6158528;28;80264;-65
2021/06/01 05:58:30;;;;;;;14.10;7.45;;;22.10;45.90;;;;;;6170056;28;80469;-66
2021/06/01 06:01:31;;;;;;;12.75;7.05;;;22.10;44.90;;;;;;6165330;28;81719;-66
2021/06/01 06:04:31;;;;;;;14.05;7.30;;;22.10;44.60;;;;;;6169921;28;80606;-66
2021/06/01 06:07:32;;;;;;;16.80;8.65;;;22.10;43.90;;;;;;6182046;28;80902;-66
2021/06/01 06:10:32;;;;;;;17.33;8.00;;;22.10;43.70;;;;;;6182141;28;81032;-66
2021/06/01 06:13:33;;;;;;;14.85;8.75;;;22.10;43.40;;;;;;6182075;28;81677;-66
2021/06/01 06:16:33;;;;;;;14.70;7.80;;;22.10;43.70;;;;;;6182085;28;80363;-66
2021/06/01 06:19:42;;;;;;;19.95;8.52;;;22.10;42.30;;;;;;6167463;28;80825;-66
2021/06/01 06:22:43;;;;;;;17.92;7.82;;;22.00;41.90;;;;;;6167416;28;81773;-65
2021/06/01 06:25:43;;;;;;;19.15;9.95;;;22.00;41.90;;;;;;6161363;28;81678;-71
2021/06/01 06:28:44;;;;;;;22.63;8.90;;;21.90;41.10;;;;;;6157971;28;80905;-66
2021/06/01 06:31:45;;;;;;;21.50;8.73;;;21.90;41.70;;;;;;6169769;28;82958;-66
2021/06/01 06:34:45;;;;;;;15.15;7.97;;;21.90;41.10;;;;;;6180973;28;80227;-66
2021/06/01 06:37:46;;;;;;;18.92;8.55;;;21.90;40.80;;;;;;6165089;28;80366;-65
2021/06/01 06:43:59;;;;;;;14.63;8.02;;;21.90;40.90;;;;;;6169366;28;81006;-66
2021/06/01 06:47:19;;;;;;;13.05;7.60;;;21.90;41.40;;;;;;6163504;28;84172;-58
2021/06/01 06:50:19;;;;;;;13.52;7.25;;;21.80;40.90;;;;;;6153912;28;80887;-67
2021/06/01 06:53:20;;;;;;;17.15;7.28;;;21.80;40.80;;;;;;6170836;28;80552;-67
2021/06/01 06:56:20;;;;;;;13.80;7.50;;;21.80;40.80;;;;;;6177589;28;80986;-67
2021/06/01 06:59:21;;;;;;;13.90;7.05;;;21.80;41.60;;;;;;6152537;28;81169;-66
2021/06/01 07:02:21;;;;;;;16.27;7.07;;;21.90;40.50;;;;;;6169272;28;80518;-66
2021/06/01 07:05:22;;;;;;;15.60;5.93;;;21.80;41.00;;;;;;6176900;27;80610;-66
2021/06/01 07:08:22;;;;;;;13.68;6.85;;;21.80;40.40;;;;;;6177856;28;80723;-67
2021/06/01 07:11:23;;;;;;;17.60;6.03;;;21.80;39.60;;;;;;6151522;28;80697;-66
2021/06/01 07:14:23;;;;;;;11.95;4.97;;;21.70;38.90;;;;;;6173732;28;80490;-66
2021/06/01 07:17:24;;;;;;;24.60;6.40;;;21.70;39.00;;;;;;6172059;28;82046;-65
2021/06/01 07:20:29;;;;;;;16.75;6.70;;;21.60;39.60;;;;;;6170491;27;80447;-66
2021/06/01 07:23:30;;;;;;;17.05;5.57;;;21.70;39.80;;;;;;6178935;28;80824;-64
2021/06/01 07:26:30;;;;;;;6.45;4.68;;;21.70;39.70;;;;;;6152303;28;80633;-64
2021/06/01 07:29:31;;;;;;;13.13;5.20;;;21.70;38.50;;;;;;6169839;28;80726;-66
2021/06/01 07:32:32;;;;;;;9.45;4.60;;;21.80;38.40;;;;;;6174732;28;80843;-67
2021/06/01 07:35:32;;;;;;;18.92;5.38;;;21.80;38.30;;;;;;6173420;28;81887;-66
2021/06/01 07:38:34;;;;;;;13.60;4.55;;;21.80;38.50;;;;;;6175167;28;80599;-66
2021/06/01 07:41:35;;;;;;;11.50;5.07;;;21.80;38.50;;;;;;6174901;28;80812;-65
2021/06/01 07:44:35;;;;;;;12.23;5.10;;;21.80;38.70;;;;;;6155662;28;80461;-65
2021/06/01 07:47:36;;;;;;;10.95;4.75;;;21.90;38.90;;;;;;6175676;28;80699;-66
2021/06/01 07:50:37;;;;;;;10.88;5.13;;;21.90;38.70;;;;;;6150375;28;81177;-67
2021/06/01 07:53:37;;;;;;;11.57;4.95;;;21.90;38.30;;;;;;6171356;28;80940;-59
2021/06/01 07:56:38;;;;;;;21.75;5.75;;;21.90;38.60;;;;;;6154382;28;80534;-67
2021/06/01 07:59:38;;;;;;;7.53;4.70;;;21.90;38.70;;;;;;6150597;27;81491;-67
2021/06/01 08:02:39;;;;;;;17.52;4.78;;;21.90;38.30;;;;;;6168333;28;82152;-67
2021/06/01 08:05:39;;;;;;;11.70;5.45;;;21.90;38.00;;;;;;6159041;28;82136;-66
2021/06/01 08:08:40;;;;;;;14.52;4.55;;;22.00;37.70;;;;;;6188561;28;80803;-66
2021/06/01 08:11:40;;;;;;;7.32;4.43;;;21.90;37.80;;;;;;6177923;28;81896;-67
2021/06/01 08:14:41;;;;;;;19.63;4.25;;;22.00;37.90;;;;;;6177622;28;80435;-68
2021/06/01 08:17:41;;;;;;;16.08;4.03;;;22.00;38.40;;;;;;6179491;28;80686;-67
2021/06/01 08:20:54;;;;;;;7.65;4.30;;;22.00;38.40;;;;;;6156062;28;80346;-68
2021/06/01 08:23:55;;;;;;;6.97;3.65;;;22.00;38.90;;;;;;6153699;28;85096;-67
2021/06/01 08:26:55;;;;;;;8.10;3.75;;;22.10;39.30;;;;;;6172524;28;80152;-66
2021/06/01 08:29:56;;;;;;;9.75;3.53;;;22.00;38.70;;;;;;6176774;28;81199;-67
2021/06/01 08:32:57;;;;;;;12.50;3.70;;;22.10;39.70;;;;;;6191451;28;83672;-66
2021/06/01 08:35:58;;;;;;;8.82;3.63;;;22.10;39.20;;;;;;6160186;28;80780;-67
2021/06/01 08:38:58;;;;;;;8.55;3.70;;;22.10;40.50;;;;;;6177860;28;80553;-65
2021/06/01 08:41:59;;;;;;;7.57;3.63;;;22.10;42.00;;;;;;6177130;28;85008;-65
2021/06/01 08:44:59;;;;;;;8.05;3.45;;;22.10;41.80;;;;;;6153731;28;81663;-66
2021/06/01 08:48:00;;;;;;;7.18;3.67;;;22.10;42.30;;;;;;6150326;28;80566;-66
2021/06/01 08:51:00;;;;;;;8.50;3.53;;;22.10;42.20;;;;;;6178001;28;84301;-67
2021/06/01 08:54:01;;;;;;;6.63;3.65;;;22.10;41.80;;;;;;6180952;28;83470;-67
2021/06/01 08:57:02;;;;;;;12.55;4.47;;;22.10;41.70;;;;;;6156586;28;83141;-65
2021/06/01 09:00:03;;;;;;;17.05;3.63;;;22.10;41.80;;;;;;6169206;28;80477;-64
2021/06/01 09:03:03;;;;;;;14.23;3.80;;;22.10;42.20;;;;;;6157259;28;80906;-68
2021/06/01 09:09:34;;;;;;;24.25;4.13;;;22.10;40.10;;;;;;6160308;28;81504;-68
2021/06/01 09:12:56;;;;;;;12.02;4.50;;;22.00;41.50;;;;;;6176767;27;81307;-67
2021/06/01 09:22:33;;;;;;;6.97;2.45;;;22.00;38.50;;;;;;6156050;28;80782;-66
2021/06/01 09:25:47;;;;;;;16.70;5.97;;;22.00;38.50;;;;;;6155244;28;84261;-64
2021/06/01 09:28:47;;;;;;;16.10;5.72;;;22.00;38.30;;;;;;6153893;28;81609;-64
2021/06/01 09:31:48;;;;;;;15.95;5.63;;;22.00;39.50;;;;;;6170578;28;81258;-65
2021/06/01 09:34:49;;;;;;;17.92;5.72;;;22.10;39.80;;;;;;6165396;27;80733;-65
2021/06/01 09:37:50;;;;;;;19.02;4.93;;;22.10;41.00;;;;;;6173398;28;80791;-65
2021/06/01 09:40:50;;;;;;;12.52;3.92;;;22.10;41.20;;;;;;6159776;28;80314;-64
2021/06/01 09:43:51;;;;;;;8.32;4.47;;;22.10;42.20;;;;;;6165818;28;80424;-65
2021/06/01 09:46:51;;;;;;;18.42;4.32;;;22.10;42.10;;;;;;6174047;28;81459;-65
2021/06/01 09:49:52;;;;;;;13.27;4.78;;;22.10;42.70;;;;;;6155322;28;80731;-66
2021/06/01 09:52:54;;;;;;;12.68;4.10;;;22.10;43.00;;;;;;6177004;28;80531;-66
2021/06/01 09:55:55;;;;;;;11.50;4.00;;;22.20;42.60;;;;;;6155635;28;80302;-66
2021/06/01 09:58:55;;;;;;;7.95;3.75;;;22.20;41.40;;;;;;6165972;28;80446;-67
2021/06/01 10:01:56;;;;;;;19.75;4.68;;;22.20;42.30;;;;;;6157979;28;82073;-67
2021/06/01 10:04:56;;;;;;;8.05;3.55;;;22.20;41.40;;;;;;6154152;28;80742;-66
2021/06/01 10:07:57;;;;;;;13.57;3.67;;;22.20;41.90;;;;;;6158412;28;82320;-66
2021/06/01 10:10:58;;;;;;;7.82;3.30;;;22.20;42.00;;;;;;6168643;28;80300;-66
2021/06/01 10:13:58;;;;;;;8.15;3.42;;;22.20;41.90;;;;;;6161738;28;80443;-66
2021/06/01 10:16:59;;;;;;;10.38;3.30;;;22.20;42.10;;;;;;6171351;28;81641;-66
2021/06/01 10:19:59;;;;;;;4.63;2.53;;;22.30;41.90;;;;;;6161331;28;81176;-67
2021/06/01 10:23:00;;;;;;;5.15;2.83;;;22.30;41.10;;;;;;6147654;28;80937;-67
2021/06/01 10:26:00;;;;;;;5.55;3.17;;;22.30;40.20;;;;;;6154872;28;80189;-67
2021/06/01 10:29:01;;;;;;;13.73;4.03;;;22.30;40.60;;;;;;6171560;28;81457;-67
2021/06/01 10:32:01;;;;;;;8.23;2.75;;;22.20;39.80;;;;;;6159238;28;80664;-68
2021/06/01 10:35:02;;;;;;;10.15;3.35;;;22.20;38.70;;;;;;6153714;28;80883;-67
2021/06/01 10:48:43;;;;;;;6.53;3.65;;;22.30;39.40;;;;;;6155160;28;81372;-67
2021/06/01 10:51:36;;;;;;;7.13;2.42;;;22.20;40.20;;;;;;6170767;28;80519;-67
2021/06/01 10:54:37;;;;;;;5.72;2.58;;;22.30;40.40;;;;;;6171954;28;81626;-66
2021/06/01 10:57:37;;;;;;;4.97;2.60;;;22.30;41.10;;;;;;6154274;28;80634;-66
2021/06/01 11:03:44;;;;;;;4.10;2.65;;;22.20;41.30;;;;;;6151802;28;85203;-67
2021/06/01 11:06:45;;;;;;;4.97;2.60;;;22.30;41.30;;;;;;6147321;28;80775;-65
2021/06/01 11:09:47;;;;;;;5.72;2.65;;;22.20;40.70;;;;;;6160509;28;80857;-65
2021/06/01 11:12:48;;;;;;;7.82;2.25;;;22.30;41.00;;;;;;6166260;28;80695;-66
2021/06/01 11:15:48;;;;;;;5.75;3.08;;;22.30;41.20;;;;;;6149044;28;80588;-65
2021/06/01 11:18:52;;;;;;;4.95;2.67;;;22.30;41.70;;;;;;6159642;28;80910;-65
2021/06/01 11:22:05;;;;;;;7.93;3.33;;;22.30;41.70;;;;;;6166614;28;80773;-66
2021/06/01 11:35:08;;;;;;;9.20;2.40;;;22.30;42.80;;;;;;6156233;28;80354;-65
2021/06/01 11:38:30;;;;;;;4.38;2.60;;;22.30;42.50;;;;;;6153304;28;81055;-65
2021/06/01 11:44:49;;;;;;;6.93;2.92;;;22.30;43.10;;;;;;6173355;28;80628;-65
2021/06/01 11:47:53;;;;;;;4.65;2.53;;;22.30;43.00;;;;;;6174000;28;81472;-65
2021/06/01 11:50:59;;;;;;;8.10;3.10;;;22.30;43.30;;;;;;6154784;28;80447;-66
2021/06/01 11:54:02;;;;;;;6.27;2.93;;;22.40;43.40;;;;;;6176814;28;84983;-67
2021/06/01 11:57:13;;;;;;;6.57;2.97;;;22.40;43.30;;;;;;6180681;28;80169;-65
2021/06/01 12:03:33;;;;;;;10.20;3.00;;;22.40;43.40;;;;;;6159849;28;80479;-64
2021/06/01 12:19:44;;;;;;;5.32;2.58;;;22.40;42.00;;;;;;6179161;28;80569;-65
2021/06/01 12:22:44;;;;;;;6.07;2.25;;;22.40;41.50;;;;;;6183206;28;81438;-65
2021/06/01 12:25:45;;;;;;;4.80;3.03;;;22.40;40.50;;;;;;6183174;28;81013;-65
2021/06/01 12:32:06;;;;;;;3.97;2.88;;;22.40;39.50;;;;;;6172521;28;80432;-65
2021/06/01 12:35:44;;;;;;;7.28;3.00;;;22.30;39.00;;;;;;6183584;28;81600;-65
2021/06/01 12:42:09;;;;;;;4.55;2.58;;;22.40;37.60;;;;;;6182105;28;85322;-67
2021/06/01 12:45:09;;;;;;;5.63;2.60;;;22.40;37.90;;;;;;6183702;28;80717;-66
2021/06/01 13:21:05;;;;;;;3.85;2.63;;;22.40;36.70;;;;;;6181540;28;85469;-67
2021/06/01 13:30:50;;;;;;;4.82;2.60;;;22.40;36.90;;;;;;6182774;28;81516;-66
2021/06/01 13:37:16;;;;;;;7.50;2.67;;;22.40;36.50;;;;;;6167126;28;80824;-67
2021/06/01 13:46:38;;;;;;;3.17;2.15;;;22.40;36.10;;;;;;6169851;28;81202;-66
2021/06/01 13:49:49;;;;;;;4.93;2.38;;;22.40;36.00;;;;;;6172481;28;81195;-67
2021/06/01 13:53:02;;;;;;;3.97;1.92;;;22.40;37.10;;;;;;6181785;28;81005;-67
2021/06/01 13:56:05;;;;;;;3.22;2.15;;;22.40;36.80;;;;;;6178398;28;80722;-65
2021/06/01 13:59:26;;;;;;;7.85;2.90;;;22.30;36.70;;;;;;6180335;28;81671;-67
2021/06/01 15:11:37;;;;;;;2.30;2.10;;;22.30;32.70;;;;;;6161882;28;80574;-65
2021/06/01 15:28:39;;;;;;;5.28;2.22;;;22.30;33.40;;;;;;6167989;28;80721;-63
2021/06/01 15:31:42;;;;;;;8.88;2.40;;;22.30;34.00;;;;;;6167385;28;80913;-65
2021/06/01 15:47:51;;;;;;;6.63;2.38;;;22.30;34.80;;;;;;6179527;28;80729;-62
2021/06/01 15:51:03;;;;;;;3.80;2.53;;;22.30;36.00;;;;;;6176897;28;81493;-62
2021/06/01 16:14:11;;;;;;;3.55;2.22;;;22.20;35.30;;;;;;6178183;28;80550;-62
2021/06/01 16:33:34;;;;;;;4.13;2.22;;;22.30;36.00;;;;;;6152701;28;81833;-62
2021/06/01 16:43:27;;;;;;;5.35;2.30;;;22.30;39.10;;;;;;6182656;28;81397;-65
2021/06/01 17:03:14;;;;;;;3.60;2.15;;;22.30;39.40;;;;;;6181807;28;85132;-64
2021/06/01 17:06:19;;;;;;;;;;;22.30;39.40;;;;;;6167160;28;80807;-64
2021/06/01 17:12:40;;;;;;;3.75;2.38;;;22.40;38.50;;;;;;6163701;28;80471;-64
2021/06/01 17:15:41;;;;;;;4.80;2.30;;;22.40;38.00;;;;;;6176299;28;80373;-65
2021/06/01 17:32:02;;;;;;;3.05;2.17;;;22.40;38.40;;;;;;6156445;28;81225;-65
2021/06/01 17:35:05;;;;;;;3.25;2.20;;;22.30;39.10;;;;;;6173418;28;80434;-67
2021/06/01 17:38:05;;;;;;;3.50;1.90;;;22.30;38.70;;;;;;6185882;28;83558;-65
2021/06/01 17:41:08;;;;;;;4.78;2.38;;;22.40;39.40;;;;;;6148890;28;81237;-65
2021/06/01 17:44:09;;;;;;;5.20;2.25;;;22.40;39.20;;;;;;6157382;28;81461;-65
2021/06/01 17:47:09;;;;;;;5.68;2.38;;;22.30;39.40;;;;;;6176067;28;80752;-65
2021/06/01 17:50:10;;;;;;;3.08;2.28;;;22.30;39.60;;;;;;6188584;28;80363;-66
2021/06/01 17:53:10;;;;;;;2.63;1.83;;;22.30;39.90;;;;;;6158747;28;80952;-67
2021/06/01 17:56:11;;;;;;;3.88;2.25;;;22.40;40.10;;;;;;6176353;28;80850;-64
2021/06/01 17:59:11;;;;;;;3.95;2.20;;;22.30;40.00;;;;;;6154619;28;80979;-64
2021/06/01 18:02:12;;;;;;;2.70;2.20;;;22.30;40.50;;;;;;6156667;28;80535;-64
2021/06/01 18:05:12;;;;;;;3.50;2.15;;;22.30;40.10;;;;;;6158172;28;81898;-65
2021/06/01 18:08:20;;;;;;;4.93;2.28;;;22.30;40.10;;;;;;6176600;28;80328;-64
2021/06/01 19:50:29;;;;;;;5.70;3.60;;;22.30;43.30;;;;;;6175012;28;80468;-66
2021/06/01 19:53:30;;;;;;;10.60;3.90;;;22.30;43.20;;;;;;6175450;28;81788;-64
2021/06/01 19:56:31;;;;;;;5.80;3.83;;;22.30;43.20;;;;;;6151469;28;80465;-64
2021/06/01 19:59:32;;;;;;;10.07;3.90;;;22.30;43.60;;;;;;6147332;28;81072;-64
2021/06/01 20:02:32;;;;;;;8.95;3.90;;;22.30;43.20;;;;;;6170475;28;81439;-63
2021/06/01 20:05:33;;;;;;;9.65;4.63;;;22.30;43.00;;;;;;6152420;28;81470;-65
2021/06/01 20:08:33;;;;;;;8.38;3.88;;;22.30;43.00;;;;;;6167553;28;80300;-64
2021/06/01 20:11:34;;;;;;;6.55;4.15;;;22.20;43.20;;;;;;6193010;28;80812;-65
2021/06/01 20:14:35;;;;;;;7.63;4.28;;;22.30;43.30;;;;;;6177162;28;80792;-64
2021/06/01 20:17:35;;;;;;;7.32;4.30;;;22.30;43.90;;;;;;6162459;28;82217;-68
2021/06/01 20:20:37;;;;;;;8.27;4.30;;;22.30;42.90;;;;;;6162515;28;80955;-67
2021/06/01 20:23:38;;;;;;;8.95;4.47;;;22.30;43.10;;;;;;6175632;28;81885;-68
2021/06/01 20:26:38;;;;;;;6.13;4.20;;;22.30;42.90;;;;;;6180351;28;80455;-68
2021/06/01 20:29:39;;;;;;;9.80;4.35;;;22.30;42.90;;;;;;6163764;28;81524;-68
2021/06/01 20:35:59;;;;;;;6.50;4.43;;;22.30;42.70;;;;;;6183182;27;85492;-68
2021/06/01 20:39:00;;;;;;;11.45;4.93;;;22.20;42.80;;;;;;6158279;28;82693;-67
2021/06/01 20:42:00;;;;;;;9.10;4.38;;;22.30;43.20;;;;;;6149864;28;82784;-68
2021/06/01 20:45:01;;;;;;;8.43;4.32;;;22.20;42.70;;;;;;6153477;28;80544;-68
2021/06/01 20:48:01;;;;;;;7.40;3.95;;;22.30;42.90;;;;;;6142844;28;81003;-66
2021/06/01 20:51:02;;;;;;;6.68;3.85;;;22.30;42.90;;;;;;6176383;28;84929;-68
2021/06/01 20:54:04;;;;;;;10.02;4.75;;;22.30;42.80;;;;;;6182180;28;80568;-67
2021/06/01 20:57:05;;;;;;;9.00;3.95;;;22.20;42.90;;;;;;6175271;28;80482;-69
2021/06/01 21:00:05;;;;;;;10.18;4.15;;;22.20;42.80;;;;;;6157167;28;80814;-66
2021/06/01 21:03:06;;;;;;;8.80;3.72;;;22.20;42.90;;;;;;6161946;28;82966;-66
2021/06/01 21:06:06;;;;;;;10.68;4.88;;;22.20;43.00;;;;;;6158409;28;80366;-66
2021/06/01 21:09:07;;;;;;;6.30;3.80;;;22.20;42.80;;;;;;6182596;28;80874;-67
2021/06/01 21:12:07;;;;;;;6.90;4.20;;;22.20;42.80;;;;;;6178413;28;80583;-67
2021/06/01 21:15:08;;;;;;;7.28;4.40;;;22.20;42.70;;;;;;6164236;28;81453;-66
2021/06/01 21:18:10;;;;;;;8.65;4.72;;;22.20;42.60;;;;;;6193846;28;80429;-67
2021/06/01 21:21:10;;;;;;;6.97;4.47;;;22.20;42.60;;;;;;6161364;28;80344;-67
2021/06/01 21:24:12;;;;;;;7.15;4.25;;;22.20;42.70;;;;;;6180077;28;80384;-67
2021/06/01 21:27:12;;;;;;;6.93;4.18;;;22.20;42.60;;;;;;6183702;28;81597;-66
2021/06/01 21:30:13;;;;;;;9.88;4.72;;;22.20;42.30;;;;;;6178243;28;80352;-67
2021/06/01 21:33:13;;;;;;;10.02;4.47;;;22.30;42.60;;;;;;6155956;28;80773;-67
2021/06/01 21:36:15;;;;;;;9.45;4.65;;;22.20;42.30;;;;;;6161478;28;82744;-64
2021/06/01 21:39:16;;;;;;;9.10;4.80;;;22.20;42.30;;;;;;6181219;28;80957;-65
2021/06/01 21:42:16;;;;;;;7.72;3.50;;;22.20;42.40;;;;;;6183382;28;80634;-65
2021/06/01 21:45:17;;;;;;;7.63;4.28;;;22.20;42.40;;;;;;6174692;28;80482;-66
2021/06/01 21:48:17;;;;;;;6.40;4.53;;;22.20;42.50;;;;;;6164758;28;80802;-67
2021/06/01 21:51:18;;;;;;;6.25;4.07;;;22.20;42.30;;;;;;6176631;28;81464;-66
2021/06/01 21:54:19;;;;;;;5.82;3.90;;;22.20;42.50;;;;;;6159950;28;81591;-66
2021/06/01 21:57:19;;;;;;;8.70;4.45;;;22.20;42.40;;;;;;6164975;28;80159;-66
2021/06/01 22:00:22;;;;;;;6.13;4.13;;;22.20;42.30;;;;;;6182430;28;81422;-66
2021/06/01 22:03:23;;;;;;;6.15;4.55;;;22.10;42.40;;;;;;6175402;28;80220;-66
2021/06/01 22:06:23;;;;;;;7.47;4.55;;;22.10;42.60;;;;;;6165189;28;80781;-66
2021/06/01 22:09:24;;;;;;;7.10;4.50;;;22.10;42.40;;;;;;6175759;28;83116;-66
2021/06/01 22:12:24;;;;;;;8.63;4.35;;;22.10;42.50;;;;;;6157253;28;81388;-66
2021/06/01 22:15:24;;;;;;;6.47;4.80;;;22.10;42.60;;;;;;6159563;28;80324;-67